Time;durP1;ratioP1;P1;durP2;ratioP2;P2;SDS_P1;SDS_P2;PMS_P1;PMS_P2;Temp;Humidity;BMP_temperature;BMP_pressure;BME280_temperature;BME280_humidity;BME280_pressure;Samples;Min_cycle;Max_cycle;Signal;HPM_P1;HPM_P2
2022/12/15 00:38:43;;;;;;;13.93;8.63;;;-5.10;99.90;;;;;;5055198;28;20055;-70
2022/12/15 00:41:10;;;;;;;14.35;9.05;;;-5.10;99.90;;;;;;5054885;28;20112;-70
2022/12/15 00:43:36;;;;;;;13.35;8.68;;;-5.10;99.90;;;;;;5044022;28;20420;-70
2022/12/15 00:48:48;;;;;;;12.75;8.90;;;-5.20;99.90;;;;;;5056740;28;20049;-70
2022/12/15 00:51:14;;;;;;;15.77;8.75;;;-5.20;99.90;;;;;;5050823;28;20056;-70
2022/12/15 01:21:08;;;;;;;14.82;8.68;;;-5.50;99.90;;;;;;5058264;28;20045;-70
2022/12/15 01:23:35;;;;;;;14.20;9.30;;;-5.50;99.90;;;;;;5059428;28;20129;-70
2022/12/15 01:26:01;;;;;;;14.77;8.60;;;-5.50;99.90;;;;;;5054880;28;20048;-70
2022/12/15 01:28:27;;;;;;;13.40;8.63;;;-5.50;99.90;;;;;;5059067;28;20029;-70
2022/12/15 01:30:53;;;;;;;14.57;9.05;;;-5.50;99.90;;;;;;5058467;28;20461;-70
2022/12/15 01:33:20;;;;;;;13.50;8.68;;;-5.50;99.90;;;;;;5051368;28;20044;-70
2022/12/15 01:35:54;;;;;;;12.02;8.48;;;-5.40;99.90;;;;;;5053040;28;20371;-69
2022/12/15 01:38:20;;;;;;;15.88;9.60;;;-5.30;99.90;;;;;;5057974;28;20587;-70
2022/12/15 01:40:51;;;;;;;13.43;8.90;;;-5.40;99.90;;;;;;5049845;28;20041;-70
2022/12/15 01:43:29;;;;;;;11.55;8.40;;;-5.40;99.90;;;;;;5052430;28;20049;-70
2022/12/15 01:46:00;;;;;;;15.55;9.93;;;-5.40;99.90;;;;;;5059616;28;20061;-70
2022/12/15 01:48:34;;;;;;;11.38;7.78;;;-5.50;99.90;;;;;;5049887;28;20045;-70
2022/12/15 01:51:34;;;;;;;14.38;8.70;;;-5.40;99.90;;;;;;5041449;28;20040;-70
2022/12/15 01:54:12;;;;;;;15.60;8.70;;;-5.70;99.90;;;;;;5056194;28;20096;-70
2022/12/15 01:56:45;;;;;;;14.95;10.23;;;-5.60;99.90;;;;;;5055282;28;20056;-70
2022/12/15 01:59:15;;;;;;;12.57;7.35;;;-5.50;99.90;;;;;;5043242;28;20056;-70
2022/12/15 02:01:41;;;;;;;15.30;8.90;;;-5.60;99.90;;;;;;5059412;28;20052;-70
2022/12/15 02:04:07;;;;;;;17.17;8.32;;;-5.60;99.90;;;;;;5056039;28;20052;-70
2022/12/15 02:06:35;;;;;;;12.10;7.93;;;-5.50;99.90;;;;;;5051708;28;20053;-70
2022/12/15 02:09:02;;;;;;;14.00;9.88;;;-5.50;99.90;;;;;;5052373;28;20789;-70
2022/12/15 02:11:45;;;;;;;17.58;10.10;;;-5.50;99.90;;;;;;5056198;28;20040;-69
2022/12/15 02:14:19;;;;;;;14.73;9.68;;;-5.50;99.90;;;;;;5041085;28;20045;-70
2022/12/15 02:16:56;;;;;;;14.60;9.27;;;-5.50;99.90;;;;;;5056378;28;20068;-70
2022/12/15 02:19:42;;;;;;;16.27;10.02;;;-5.50;99.90;;;;;;5051588;28;20049;-69
2022/12/15 02:22:40;;;;;;;17.52;11.05;;;-5.50;99.90;;;;;;5057512;28;20072;-70
2022/12/15 02:25:33;;;;;;;15.43;9.93;;;-5.50;99.90;;;;;;5049193;28;20042;-70
2022/12/15 02:28:03;;;;;;;13.70;8.30;;;-5.40;99.90;;;;;;5059392;28;20052;-70
2022/12/15 02:31:48;;;;;;;12.60;8.13;;;-5.40;99.90;;;;;;5056987;28;20045;-70
2022/12/15 02:33:45;;;;;;;13.52;9.00;;;-5.40;99.90;;;;;;5057717;28;20086;-70
2022/12/15 02:36:26;;;;;;;15.55;9.00;;;-5.30;99.90;;;;;;5054760;28;20060;-69
2022/12/15 02:38:52;;;;;;;14.98;8.98;;;-5.40;99.90;;;;;;5056781;28;20048;-69
2022/12/15 02:41:37;;;;;;;14.40;9.60;;;-5.40;99.90;;;;;;5058916;28;20051;-69
2022/12/15 02:44:30;;;;;;;12.40;8.38;;;-5.30;99.90;;;;;;5045594;28;20084;-69
2022/12/15 02:47:23;;;;;;;12.38;8.32;;;-5.30;99.90;;;;;;5017028;28;20046;-69
2022/12/15 02:50:10;;;;;;;12.88;8.43;;;-5.30;99.90;;;;;;5038098;28;20049;-69
2022/12/15 02:53:00;;;;;;;14.68;9.32;;;-5.30;99.90;;;;;;5024630;28;20061;-70
2022/12/15 02:55:54;;;;;;;15.10;9.18;;;-5.30;99.90;;;;;;5042868;28;20128;-69
2022/12/15 02:58:47;;;;;;;14.63;9.18;;;-5.30;99.90;;;;;;5058868;28;20080;-70
2022/12/15 03:01:31;;;;;;;15.13;8.70;;;-5.20;99.90;;;;;;5045036;28;20136;-69
2022/12/15 03:04:00;;;;;;;12.88;8.20;;;-5.20;99.90;;;;;;5049393;28;20045;-70
2022/12/15 03:06:27;;;;;;;11.23;8.60;;;-5.20;99.90;;;;;;5057073;28;20068;-69
2022/12/15 03:08:52;;;;;;;15.02;8.35;;;-5.20;99.90;;;;;;5056581;28;20398;-70
2022/12/15 03:11:18;;;;;;;14.45;8.95;;;-4.70;99.90;;;;;;5045703;28;20053;-70
2022/12/15 03:13:44;;;;;;;15.07;9.35;;;-5.20;99.90;;;;;;5051252;28;20036;-70
2022/12/15 03:16:10;;;;;;;11.73;8.00;;;-5.20;99.90;;;;;;5045368;28;20048;-70
2022/12/15 03:18:35;;;;;;;14.55;9.07;;;-5.30;99.90;;;;;;5057462;28;20037;-70
2022/12/15 03:21:01;;;;;;;12.77;7.30;;;-5.30;99.90;;;;;;5056740;28;20577;-70
2022/12/15 03:23:27;;;;;;;14.73;9.93;;;-5.50;99.90;;;;;;5056443;28;20132;-69
2022/12/15 03:25:54;;;;;;;13.75;10.25;;;-5.20;99.90;;;;;;5055470;28;20049;-70
2022/12/15 03:28:20;;;;;;;14.95;9.32;;;-5.20;99.90;;;;;;5053128;28;20056;-70
2022/12/15 03:30:48;;;;;;;13.25;7.90;;;-5.40;99.90;;;;;;5040521;28;20048;-70
2022/12/15 03:33:13;;;;;;;13.43;8.48;;;-5.40;99.90;;;;;;5054973;28;20048;-70
2022/12/15 03:35:39;;;;;;;16.10;8.75;;;-5.30;99.90;;;;;;5037217;28;20141;-69
2022/12/15 03:38:05;;;;;;;12.43;8.32;;;-5.30;99.90;;;;;;5047221;28;20545;-70
2022/12/15 03:40:31;;;;;;;14.57;8.10;;;-5.30;99.90;;;;;;5056719;28;20044;-70
2022/12/15 03:42:57;;;;;;;13.52;8.27;;;;;;;;;;5045057;28;20113;-70
2022/12/15 03:45:27;;;;;;;14.02;8.30;;;-5.30;99.90;;;;;;5050951;28;20048;-70
2022/12/15 03:47:54;;;;;;;11.50;7.47;;;-5.30;99.90;;;;;;5047018;28;20049;-69
2022/12/15 03:50:23;;;;;;;13.85;8.10;;;-5.40;99.90;;;;;;5056151;28;20052;-70
2022/12/15 03:52:59;;;;;;;14.27;7.88;;;-5.40;99.90;;;;;;5057032;28;20051;-70
2022/12/15 03:55:27;;;;;;;16.77;8.35;;;-5.40;99.90;;;;;;5051008;28;20033;-70
2022/12/15 03:57:53;;;;;;;12.35;7.90;;;-5.40;99.90;;;;;;5055021;28;20045;-69
2022/12/15 04:00:20;;;;;;;13.60;7.97;;;-5.40;99.90;;;;;;5052499;28;20121;-70
2022/12/15 04:02:47;;;;;;;14.38;8.15;;;-5.30;99.90;;;;;;5046183;28;20049;-70
2022/12/15 04:05:25;;;;;;;13.27;7.97;;;-5.30;99.90;;;;;;5056082;28;20045;-70
2022/12/15 04:07:52;;;;;;;14.27;8.43;;;-5.30;99.90;;;;;;5056060;28;20049;-70
2022/12/15 04:10:17;;;;;;;12.40;8.02;;;-5.30;99.90;;;;;;5054364;28;20765;-70
2022/12/15 04:12:43;;;;;;;12.35;7.22;;;-5.30;99.90;;;;;;5034115;28;20034;-70
2022/12/15 04:15:10;;;;;;;14.63;7.78;;;-5.30;99.90;;;;;;5053442;28;20045;-70
2022/12/15 04:17:35;;;;;;;12.13;8.00;;;-5.30;99.90;;;;;;5048561;28;20050;-70
2022/12/15 04:20:08;;;;;;;11.90;7.93;;;-5.20;99.90;;;;;;5038573;28;20053;-70
2022/12/15 04:22:38;;;;;;;11.93;8.68;;;-5.10;99.90;;;;;;5056446;28;20096;-70
2022/12/15 05:33:54;;;;;;;9.90;7.18;;;-4.90;99.90;;;;;;5046917;28;20053;-70
2022/12/15 05:36:20;;;;;;;11.02;7.18;;;-5.00;99.90;;;;;;5053584;28;20059;-70
2022/12/15 05:38:50;;;;;;;11.48;7.20;;;-5.10;99.90;;;;;;5057391;28;20045;-70
2022/12/15 05:41:17;;;;;;;11.10;6.18;;;-5.10;99.90;;;;;;5057647;28;20107;-70
2022/12/15 05:43:43;;;;;;;9.90;6.15;;;-5.10;99.90;;;;;;5058298;28;20068;-70
2022/12/15 05:46:08;;;;;;;12.48;6.65;;;-5.20;99.90;;;;;;5058280;28;20059;-70
2022/12/15 05:48:34;;;;;;;9.15;6.30;;;-5.20;99.90;;;;;;5059308;28;20380;-70
2022/12/15 05:51:08;;;;;;;12.63;7.07;;;-5.70;99.90;;;;;;5058045;28;20041;-70
2022/12/15 05:53:35;;;;;;;11.68;6.65;;;-5.10;99.90;;;;;;5042586;28;20501;-70
2022/12/15 05:56:06;;;;;;;12.32;7.68;;;-5.10;99.90;;;;;;5053428;28;20052;-70
2022/12/15 05:58:32;;;;;;;11.80;7.25;;;-5.10;99.90;;;;;;5046541;28;20041;-70
2022/12/15 06:01:06;;;;;;;10.52;7.70;;;-3.30;99.90;;;;;;5055542;28;20141;-70
2022/12/15 06:03:32;;;;;;;10.60;6.63;;;-5.60;99.90;;;;;;5056249;28;20157;-70
2022/12/15 06:05:59;;;;;;;11.70;7.05;;;-5.10;99.90;;;;;;5055000;28;20485;-70
2022/12/15 06:08:29;;;;;;;11.48;7.05;;;-5.10;99.90;;;;;;5055758;28;20036;-70
2022/12/15 06:10:55;;;;;;;12.85;7.55;;;-5.00;99.90;;;;;;5056454;28;20080;-70
2022/12/15 06:13:23;;;;;;;10.82;7.05;;;-5.00;99.90;;;;;;5055919;28;20517;-70
2022/12/15 06:15:58;;;;;;;12.20;8.48;;;-5.00;99.90;;;;;;5058314;28;20083;-70
2022/12/15 06:18:27;;;;;;;10.75;7.63;;;-5.00;99.90;;;;;;5057050;28;20045;-70
2022/12/15 06:21:07;;;;;;;10.70;7.00;;;-5.00;99.90;;;;;;5048423;28;20435;-70
2022/12/15 06:23:33;;;;;;;10.15;6.65;;;-5.00;99.90;;;;;;5058175;28;20036;-70
2022/12/15 06:26:20;;;;;;;13.88;9.00;;;-5.00;99.90;;;;;;5056680;28;20080;-70
2022/12/15 06:28:46;;;;;;;;;;;-5.00;99.90;;;;;;5050298;28;20069;-70
2022/12/15 06:31:13;;;;;;;10.40;7.28;;;-4.90;99.90;;;;;;5050302;28;19921;-70
2022/12/15 06:33:42;;;;;;;11.02;7.03;;;-4.90;99.90;;;;;;5057270;28;20052;-71
2022/12/15 06:36:13;;;;;;;13.60;8.50;;;-4.80;99.90;;;;;;5039705;28;20079;-70
2022/12/15 06:38:42;;;;;;;8.60;5.90;;;-4.80;99.90;;;;;;5047382;28;20060;-70
2022/12/15 06:41:09;;;;;;;9.23;6.25;;;-4.80;99.90;;;;;;5057327;28;20113;-71
2022/12/15 06:43:35;;;;;;;10.30;7.25;;;-4.70;99.90;;;;;;5056935;28;20037;-70
2022/12/15 06:46:02;;;;;;;10.20;7.10;;;-4.70;99.90;;;;;;5069188;28;20045;-70
2022/12/15 06:48:28;;;;;;;12.30;6.97;;;-4.70;99.90;;;;;;5045633;28;20044;-70
2022/12/15 06:50:54;;;;;;;10.98;6.97;;;-4.70;99.90;;;;;;5056600;28;20087;-70
2022/12/15 06:53:21;;;;;;;11.55;8.63;;;-4.70;99.90;;;;;;5058886;28;20068;-70
2022/12/15 06:55:47;;;;;;;11.70;7.65;;;-4.70;99.90;;;;;;5043706;28;20048;-70
2022/12/15 06:58:14;;;;;;;12.20;6.75;;;-4.70;99.90;;;;;;5058732;28;20037;-70
2022/12/15 07:00:42;;;;;;;11.93;6.72;;;-4.80;99.90;;;;;;5054815;28;20037;-70
2022/12/15 07:03:14;;;;;;;12.13;7.15;;;-4.80;99.90;;;;;;5055775;28;20053;-70
2022/12/15 07:05:40;;;;;;;12.68;7.25;;;-4.80;99.90;;;;;;5058077;28;20132;-69
2022/12/15 07:08:06;;;;;;;10.38;6.97;;;-4.80;99.90;;;;;;5055059;28;20076;-70
2022/12/15 07:10:32;;;;;;;10.32;7.50;;;-4.80;99.90;;;;;;5050354;28;20053;-70
2022/12/15 07:12:57;;;;;;;10.63;7.72;;;-4.80;99.90;;;;;;5046096;28;20048;-70
2022/12/15 07:15:24;;;;;;;12.27;6.70;;;-4.70;99.90;;;;;;5041067;28;20053;-71
2022/12/15 07:17:53;;;;;;;12.27;7.05;;;-4.60;99.90;;;;;;5051743;28;20059;-70
2022/12/15 07:20:20;;;;;;;11.73;7.38;;;-4.70;99.90;;;;;;5041815;28;20060;-70
2022/12/15 07:22:52;;;;;;;12.65;7.75;;;-4.70;99.90;;;;;;5057530;28;20394;-70
2022/12/15 07:25:18;;;;;;;16.45;8.20;;;-4.60;99.90;;;;;;5056152;28;20043;-70
2022/12/15 07:27:44;;;;;;;12.57;9.13;;;-4.50;99.90;;;;;;5055530;28;20052;-70
2022/12/15 07:30:11;;;;;;;15.05;8.98;;;-4.40;99.90;;;;;;5055089;28;20104;-70
2022/12/15 07:32:37;;;;;;;10.07;7.20;;;-4.30;99.90;;;;;;5056953;28;20109;-69
2022/12/15 07:35:04;;;;;;;14.00;8.93;;;-4.20;99.90;;;;;;5054544;28;20086;-69
2022/12/15 07:37:30;;;;;;;12.07;8.35;;;-4.10;99.90;;;;;;5056640;28;20092;-70
2022/12/15 07:39:56;;;;;;;13.68;7.75;;;-4.10;99.90;;;;;;5055833;28;20071;-70
2022/12/15 07:42:22;;;;;;;13.23;8.48;;;-4.00;99.90;;;;;;5056039;28;20033;-70
2022/12/15 07:44:48;;;;;;;10.73;7.53;;;-3.90;99.90;;;;;;5056923;28;20049;-70
2022/12/15 07:47:14;;;;;;;13.38;7.82;;;-3.90;99.90;;;;;;5055224;28;20044;-70
2022/12/15 07:49:40;;;;;;;12.23;8.70;;;-3.80;99.90;;;;;;5039393;28;20112;-70
2022/12/15 07:52:06;;;;;;;10.60;7.28;;;-3.70;99.90;;;;;;5035373;28;20037;-70
2022/12/15 07:54:31;;;;;;;11.82;8.82;;;-3.60;99.90;;;;;;5044203;28;20061;-70
2022/12/15 07:56:58;;;;;;;9.95;6.55;;;-3.60;99.90;;;;;;5050292;28;20128;-70
2022/12/15 07:59:25;;;;;;;11.07;7.35;;;-3.50;99.90;;;;;;5071591;28;20529;-71
2022/12/15 08:01:52;;;;;;;9.85;7.18;;;-3.40;99.90;;;;;;5057207;28;20052;-71
2022/12/15 08:04:18;;;;;;;10.02;7.60;;;-3.40;99.90;;;;;;5055116;28;20060;-71
2022/12/15 08:06:44;;;;;;;11.18;7.85;;;-3.30;99.90;;;;;;5041129;28;20068;-70
2022/12/15 08:09:09;;;;;;;10.75;7.63;;;-3.20;99.90;;;;;;5031868;28;20046;-70
2022/12/15 08:11:35;;;;;;;14.15;8.45;;;-3.20;99.90;;;;;;5032033;28;20156;-70
2022/12/15 08:14:01;;;;;;;10.60;7.32;;;-3.20;99.90;;;;;;5061700;28;20053;-69
2022/12/15 08:16:28;;;;;;;12.75;6.80;;;-3.20;99.90;;;;;;5038578;28;20046;-69
2022/12/15 08:18:55;;;;;;;10.02;7.45;;;-3.20;99.90;;;;;;5040365;28;20042;-69
2022/12/15 08:21:22;;;;;;;11.50;8.82;;;-3.20;99.90;;;;;;5037571;28;20044;-70
2022/12/15 08:23:48;;;;;;;9.45;7.22;;;-3.30;99.90;;;;;;5039689;28;20076;-69
2022/12/15 08:26:16;;;;;;;10.07;7.25;;;-3.30;99.90;;;;;;5039378;28;20084;-69
2022/12/15 08:28:43;;;;;;;10.02;6.78;;;-3.40;99.90;;;;;;5039917;28;20076;-69
2022/12/15 08:31:11;;;;;;;10.95;7.00;;;-3.50;99.90;;;;;;5039994;28;20088;-69
2022/12/15 08:33:38;;;;;;;14.05;8.73;;;-3.50;99.90;;;;;;5039692;28;20049;-69
2022/12/15 08:36:07;;;;;;;8.50;5.60;;;-3.50;99.90;;;;;;5040662;28;20057;-70
2022/12/15 08:38:34;;;;;;;11.95;8.18;;;-3.60;99.90;;;;;;5037870;28;20572;-68
2022/12/15 08:41:18;;;;;;;10.43;7.00;;;-3.60;99.90;;;;;;5041179;28;20072;-68
2022/12/15 08:43:45;;;;;;;9.38;6.50;;;-3.60;99.90;;;;;;5039064;28;20056;-68
2022/12/15 08:46:11;;;;;;;12.70;8.05;;;-3.60;99.90;;;;;;5039955;28;20045;-69
2022/12/15 08:48:37;;;;;;;9.98;7.05;;;-3.50;99.90;;;;;;5040257;28;20045;-68
2022/12/15 08:51:03;;;;;;;13.43;8.63;;;-3.50;99.90;;;;;;5038852;28;20461;-69
2022/12/15 08:53:29;;;;;;;11.20;7.40;;;-3.50;99.90;;;;;;5040227;28;20053;-68
2022/12/15 08:56:04;;;;;;;11.73;7.72;;;-3.50;99.90;;;;;;5051443;28;20037;-68
2022/12/15 08:58:30;;;;;;;10.13;7.68;;;-3.50;99.90;;;;;;5058311;28;20040;-68
2022/12/15 09:01:05;;;;;;;11.02;7.65;;;-3.30;99.90;;;;;;5042240;28;20128;-68
2022/12/15 09:03:32;;;;;;;12.80;7.97;;;-3.40;99.90;;;;;;5039193;28;20044;-68
2022/12/15 09:06:07;;;;;;;10.02;7.00;;;-3.40;99.90;;;;;;5043096;28;20043;-68
2022/12/15 09:08:33;;;;;;;11.65;7.50;;;-3.30;99.90;;;;;;5037717;28;20046;-68
2022/12/15 09:11:00;;;;;;;10.18;7.22;;;-3.20;99.90;;;;;;5040606;28;20304;-68
2022/12/15 09:13:27;;;;;;;10.57;6.82;;;-3.20;99.90;;;;;;5038278;28;20057;-69
2022/12/15 09:16:19;;;;;;;10.88;7.20;;;-3.10;99.90;;;;;;5042168;28;20041;-69
2022/12/15 09:18:51;;;;;;;13.18;8.95;;;-3.00;99.90;;;;;;5036909;28;20559;-68
2022/12/15 09:21:21;;;;;;;9.60;7.47;;;-2.80;99.90;;;;;;5046430;28;20052;-69
2022/12/15 09:23:48;;;;;;;13.40;8.32;;;-2.70;99.90;;;;;;5041734;28;20148;-69
2022/12/15 09:26:14;;;;;;;13.27;7.90;;;-2.50;99.90;;;;;;5037699;28;20592;-69
2022/12/15 09:28:41;;;;;;;10.50;7.35;;;-2.50;99.90;;;;;;5038295;28;20049;-69
2022/12/15 09:31:13;;;;;;;10.82;8.07;;;-2.40;99.90;;;;;;5038735;28;20563;-68
2022/12/15 09:33:39;;;;;;;11.20;7.85;;;-2.40;99.90;;;;;;5038249;28;20049;-69
2022/12/15 09:36:06;;;;;;;12.10;7.95;;;-2.30;99.90;;;;;;5040022;28;20119;-68
2022/12/15 09:38:33;;;;;;;10.45;7.70;;;-2.20;99.90;;;;;;5048461;28;20097;-67
2022/12/15 09:41:08;;;;;;;12.00;7.35;;;-2.10;99.90;;;;;;5039222;28;20041;-68
2022/12/15 09:43:36;;;;;;;9.73;6.82;;;-2.10;99.90;;;;;;5036722;28;20095;-67
2022/12/15 09:46:10;;;;;;;10.38;7.25;;;-1.30;99.90;;;;;;5037730;28;20041;-67
2022/12/15 09:48:40;;;;;;;11.65;7.65;;;-2.00;99.90;;;;;;5037778;28;20038;-67
2022/12/15 09:51:13;;;;;;;10.68;6.97;;;-1.40;99.90;;;;;;5036891;28;20048;-68
2022/12/15 09:53:39;;;;;;;12.48;7.47;;;-1.20;99.90;;;;;;5039510;28;20037;-68
2022/12/15 09:56:12;;;;;;;11.95;6.93;;;-1.70;99.90;;;;;;5037505;28;20068;-67
2022/12/15 09:58:58;;;;;;;7.00;5.18;;;-1.60;99.90;;;;;;5039215;28;20650;-68
2022/12/15 10:01:34;;;;;;;9.95;6.07;;;-1.50;99.90;;;;;;5032882;28;20049;-67
2022/12/15 10:04:18;;;;;;;11.47;6.87;;;-1.30;99.90;;;;;;5037244;28;20041;-67
2022/12/15 10:06:56;;;;;;;11.30;7.07;;;-1.20;99.90;;;;;;5038585;28;20037;-67
2022/12/15 10:09:28;;;;;;;10.02;6.25;;;-0.90;99.90;;;;;;5035591;28;20052;-67
2022/12/15 10:12:14;;;;;;;9.63;5.80;;;-0.70;99.90;;;;;;5037107;28;20934;-68
2022/12/15 10:14:48;;;;;;;8.75;5.43;;;-0.30;99.90;;;;;;5039896;28;20057;-67
2022/12/15 10:17:42;;;;;;;7.80;5.45;;;0.00;99.90;;;;;;5034609;28;20105;-67
2022/12/15 10:20:28;;;;;;;8.18;5.90;;;0.30;99.90;;;;;;5018902;28;20081;-68
2022/12/15 10:23:00;;;;;;;10.27;5.22;;;0.40;99.90;;;;;;5038532;28;20072;-67
2022/12/15 10:25:32;;;;;;;8.10;5.60;;;0.60;99.90;;;;;;5036604;28;20041;-67
2022/12/15 10:28:32;;;;;;;8.75;5.57;;;0.80;99.90;;;;;;5038206;28;20046;-68
2022/12/15 10:31:13;;;;;;;9.52;5.80;;;1.10;99.90;;;;;;5045120;28;20079;-67
2022/12/15 10:33:41;;;;;;;7.32;5.05;;;1.10;99.90;;;;;;5035258;28;20049;-68
2022/12/15 10:36:13;;;;;;;7.82;5.53;;;1.20;99.90;;;;;;5037396;28;20069;-67
2022/12/15 10:38:46;;;;;;;6.65;4.88;;;1.30;99.90;;;;;;5028117;28;20057;-68
2022/12/15 10:41:19;;;;;;;8.45;5.43;;;1.20;99.90;;;;;;5038152;28;20042;-68
2022/12/15 10:43:48;;;;;;;9.23;5.53;;;0.80;99.90;;;;;;5036679;28;20416;-68
2022/12/15 10:46:17;;;;;;;8.00;5.60;;;0.50;99.90;;;;;;5037182;28;20045;-67
2022/12/15 10:49:06;;;;;;;7.45;4.97;;;0.70;99.90;;;;;;5036471;28;20045;-67
2022/12/15 10:51:36;;;;;;;8.15;5.32;;;0.60;99.90;;;;;;5025423;28;20516;-68
2022/12/15 10:54:12;;;;;;;10.45;5.75;;;0.40;99.90;;;;;;5036765;28;20105;-68
2022/12/15 10:56:55;;;;;;;8.35;5.70;;;0.30;99.90;;;;;;5036023;28;20136;-67
2022/12/15 10:59:33;;;;;;;8.40;5.80;;;0.20;99.90;;;;;;5035815;28;20052;-68
2022/12/15 11:02:22;;;;;;;10.02;5.93;;;0.40;99.90;;;;;;5037267;28;20045;-69
2022/12/15 11:05:15;;;;;;;8.13;6.07;;;-0.10;99.90;;;;;;5035007;28;20052;-68
2022/12/15 11:07:53;;;;;;;8.68;6.10;;;-0.20;99.90;;;;;;5047793;28;20073;-68
2022/12/15 11:13:17;;;;;;;9.80;6.43;;;-0.40;99.90;;;;;;5035731;28;20557;-69
2022/12/15 11:15:44;;;;;;;8.35;5.90;;;-0.40;99.90;;;;;;5069697;28;20065;-69
2022/12/15 11:18:51;;;;;;;9.02;6.25;;;-0.40;99.90;;;;;;5036756;28;20048;-68
2022/12/15 11:21:38;;;;;;;10.90;6.50;;;-0.30;99.90;;;;;;5034085;28;20064;-68
2022/12/15 11:24:28;;;;;;;10.63;7.40;;;0.10;99.90;;;;;;5037533;28;20037;-68
2022/12/15 11:27:14;;;;;;;7.72;6.20;;;-0.30;99.90;;;;;;5033339;28;20060;-67
2022/12/15 11:30:04;;;;;;;10.63;6.57;;;-0.20;99.90;;;;;;5036866;28;20057;-69
2022/12/15 11:32:36;;;;;;;9.88;6.63;;;-0.10;99.90;;;;;;5034588;28;20057;-69
2022/12/15 11:35:02;;;;;;;9.68;6.60;;;-0.10;99.90;;;;;;5035460;28;20048;-69
2022/12/15 11:37:41;;;;;;;9.07;6.68;;;-0.10;99.90;;;;;;5036149;28;20139;-69
2022/12/15 11:40:36;;;;;;;11.15;7.28;;;-0.10;99.90;;;;;;5038322;28;20520;-67
2022/12/15 11:43:09;;;;;;;10.45;6.63;;;-0.10;99.90;;;;;;5038021;28;20408;-68
2022/12/15 11:46:00;;;;;;;9.93;7.38;;;-0.10;99.90;;;;;;5019124;28;20053;-69
2022/12/15 11:49:04;;;;;;;9.52;6.95;;;0.00;99.90;;;;;;5025308;28;20072;-68
2022/12/15 11:51:54;;;;;;;9.63;7.60;;;0.00;99.90;;;;;;5035247;28;20061;-68
2022/12/15 11:54:46;;;;;;;10.75;7.50;;;0.20;99.90;;;;;;5022466;28;20038;-69
2022/12/15 11:57:30;;;;;;;9.80;6.28;;;0.10;99.90;;;;;;5046027;28;20045;-68
2022/12/15 12:00:08;;;;;;;12.88;7.13;;;0.10;99.90;;;;;;5049890;28;20064;-68
2022/12/15 12:02:43;;;;;;;10.90;7.15;;;0.10;99.90;;;;;;5054448;28;20056;-69
2022/12/15 12:05:46;;;;;;;10.73;7.57;;;0.20;99.90;;;;;;5035421;28;20071;-69
2022/12/15 12:08:19;;;;;;;10.13;8.10;;;0.30;99.90;;;;;;5029089;28;20041;-67
2022/12/15 12:10:44;;;;;;;10.25;7.18;;;0.50;99.90;;;;;;5036629;28;20041;-68
2022/12/15 12:13:45;;;;;;;11.02;7.68;;;0.40;99.90;;;;;;5036045;28;20080;-68
2022/12/15 12:16:22;;;;;;;10.35;7.32;;;0.50;99.90;;;;;;5011680;28;20049;-69
2022/12/15 12:19:01;;;;;;;9.98;7.18;;;0.60;99.90;;;;;;5036717;28;20052;-67
2022/12/15 12:21:33;;;;;;;8.85;5.38;;;0.70;99.90;;;;;;5034786;28;20061;-66
2022/12/15 12:24:31;;;;;;;8.23;6.47;;;0.70;99.90;;;;;;5051579;28;20057;-68
2022/12/15 12:27:11;;;;;;;11.75;7.57;;;0.80;99.90;;;;;;5027306;28;20057;-68
2022/12/15 12:29:44;;;;;;;10.88;7.93;;;0.90;99.90;;;;;;5035289;28;20041;-68
2022/12/15 12:32:47;;;;;;;8.98;6.68;;;0.90;99.90;;;;;;5045693;28;20058;-67
2022/12/15 12:35:20;;;;;;;10.07;7.22;;;1.00;99.90;;;;;;5015929;28;20085;-66
2022/12/15 12:37:58;;;;;;;10.07;7.72;;;1.00;99.90;;;;;;5047192;28;20109;-66
2022/12/15 12:40:42;;;;;;;10.32;6.80;;;1.00;99.90;;;;;;5035609;28;20060;-66
2022/12/15 12:43:11;;;;;;;9.65;6.53;;;1.10;99.90;;;;;;5035005;28;20045;-66
2022/12/15 12:46:02;;;;;;;10.73;7.65;;;1.40;99.90;;;;;;5036811;28;20487;-67
2022/12/15 12:48:30;;;;;;;10.50;7.78;;;1.40;99.90;;;;;;5045494;28;20064;-66
2022/12/15 12:51:28;;;;;;;12.30;7.82;;;1.50;99.90;;;;;;5049959;28;20045;-67
2022/12/15 12:53:55;;;;;;;9.05;7.20;;;1.50;99.90;;;;;;5048807;28;20049;-67
2022/12/15 12:56:43;;;;;;;11.02;7.25;;;1.50;99.90;;;;;;5036238;28;20613;-67
2022/12/15 12:59:29;;;;;;;10.85;6.80;;;1.40;99.90;;;;;;5039304;28;20049;-67
2022/12/15 13:02:13;;;;;;;12.07;8.07;;;1.30;99.90;;;;;;5037165;28;20053;-67
2022/12/15 13:04:41;;;;;;;10.15;7.70;;;1.20;99.90;;;;;;5038246;28;20056;-66
2022/12/15 13:07:31;;;;;;;12.00;7.20;;;1.20;99.90;;;;;;5039890;28;20069;-67
2022/12/15 13:10:06;;;;;;;11.50;8.40;;;1.20;99.90;;;;;;5039924;28;20037;-67
2022/12/15 13:12:35;;;;;;;12.00;8.55;;;1.10;99.90;;;;;;5042402;28;20121;-66
2022/12/15 13:15:13;;;;;;;10.50;7.53;;;1.00;99.90;;;;;;5037436;28;20058;-67
2022/12/15 13:17:43;;;;;;;13.27;8.80;;;0.90;99.90;;;;;;5043525;28;20053;-66
2022/12/15 13:20:16;;;;;;;11.02;7.15;;;0.80;99.90;;;;;;5044160;28;20048;-66
2022/12/15 13:22:42;;;;;;;12.02;7.43;;;0.80;99.90;;;;;;5040212;28;20059;-66
2022/12/15 13:25:38;;;;;;;13.05;8.50;;;0.90;99.90;;;;;;5037756;28;20514;-66
2022/12/15 13:28:39;;;;;;;11.75;8.02;;;1.00;99.90;;;;;;5040332;28;20034;-66
2022/12/15 13:31:19;;;;;;;11.68;7.97;;;1.00;99.90;;;;;;5030826;28;20045;-66
2022/12/15 13:33:48;;;;;;;11.15;7.82;;;0.90;99.90;;;;;;5033307;28;20050;-66
2022/12/15 13:36:36;;;;;;;11.95;7.97;;;0.90;99.90;;;;;;5039700;28;20065;-66
2022/12/15 13:39:21;;;;;;;12.77;8.50;;;1.00;99.90;;;;;;5040989;28;20049;-65
2022/12/15 13:41:56;;;;;;;11.98;7.95;;;1.10;99.90;;;;;;5037841;28;20045;-66
2022/12/15 13:44:34;;;;;;;13.48;8.70;;;1.10;99.90;;;;;;5052122;28;20105;-66
2022/12/15 13:47:23;;;;;;;9.93;7.97;;;1.10;99.90;;;;;;5049055;28;20110;-66
2022/12/15 13:49:57;;;;;;;13.07;8.45;;;1.20;99.90;;;;;;5035081;28;20049;-66
2022/12/15 13:52:22;;;;;;;12.70;9.25;;;1.20;99.90;;;;;;5038322;28;20053;-65
2022/12/15 13:55:01;;;;;;;10.50;8.02;;;1.30;99.90;;;;;;5038187;28;20464;-66
2022/12/15 13:57:32;;;;;;;9.63;7.15;;;1.50;99.90;;;;;;5026163;28;20050;-66
2022/12/15 14:00:05;;;;;;;13.10;9.48;;;1.60;99.90;;;;;;5020664;28;20052;-66
2022/12/15 14:02:34;;;;;;;12.32;9.20;;;1.70;99.90;;;;;;5038240;28;20139;-67
2022/12/15 14:05:13;;;;;;;11.38;8.18;;;1.80;99.90;;;;;;5061432;28;20041;-66
2022/12/15 14:07:41;;;;;;;13.40;8.65;;;1.70;99.90;;;;;;5034604;28;20056;-66
2022/12/15 14:10:27;;;;;;;12.23;8.93;;;1.60;99.90;;;;;;5022653;28;20042;-66
2022/12/15 14:12:56;;;;;;;13.82;9.43;;;1.40;99.90;;;;;;5014996;28;20141;-67
2022/12/15 14:15:32;;;;;;;11.98;8.52;;;1.70;99.90;;;;;;5023499;28;20048;-67
2022/12/15 14:17:59;;;;;;;;;;;1.60;99.90;;;;;;5029188;28;20760;-67
2022/12/15 14:20:37;;;;;;;10.20;7.72;;;1.10;99.90;;;;;;5064345;28;19933;-67
2022/12/15 14:23:17;;;;;;;11.77;8.05;;;1.10;99.90;;;;;;5019138;28;20069;-66
2022/12/15 14:25:56;;;;;;;10.73;8.45;;;1.10;99.90;;;;;;5022725;28;20034;-66
2022/12/15 14:28:24;;;;;;;10.90;8.25;;;1.10;99.90;;;;;;5038848;28;20044;-67
2022/12/15 14:30:50;;;;;;;11.18;7.75;;;1.00;99.90;;;;;;5031645;28;20045;-66
2022/12/15 14:33:17;;;;;;;11.10;8.50;;;1.00;99.90;;;;;;5036408;28;20073;-66
2022/12/15 14:35:46;;;;;;;12.73;8.60;;;1.00;99.90;;;;;;5038875;28;20097;-66
2022/12/15 14:38:19;;;;;;;13.32;9.02;;;1.00;99.90;;;;;;5034476;28;20084;-66
2022/12/15 14:40:48;;;;;;;12.60;8.50;;;1.00;99.90;;;;;;5038825;28;20978;-67
2022/12/15 14:43:24;;;;;;;10.88;8.63;;;1.00;99.90;;;;;;5032443;28;20037;-67
2022/12/15 14:45:54;;;;;;;12.77;9.02;;;0.90;99.90;;;;;;5025438;28;20057;-66
2022/12/15 14:48:33;;;;;;;12.68;9.95;;;0.90;99.90;;;;;;5041679;28;20072;-66
2022/12/15 14:51:01;;;;;;;10.32;8.45;;;0.80;99.90;;;;;;5036803;28;20132;-66
2022/12/15 14:53:33;;;;;;;15.50;9.35;;;0.50;99.90;;;;;;5038423;28;20049;-65
2022/12/15 14:56:20;;;;;;;12.20;8.45;;;0.70;99.90;;;;;;5036228;28;20041;-66
2022/12/15 14:59:03;;;;;;;10.55;8.23;;;0.60;99.90;;;;;;5037569;28;20041;-67
2022/12/15 15:01:35;;;;;;;13.43;10.15;;;0.50;99.90;;;;;;5036541;28;20077;-67
2022/12/15 15:04:04;;;;;;;12.82;8.13;;;0.50;99.90;;;;;;5035714;28;20148;-67
2022/12/15 15:06:39;;;;;;;14.60;9.55;;;0.50;99.90;;;;;;5032910;28;20156;-67
2022/12/15 15:09:28;;;;;;;14.50;10.37;;;0.50;99.90;;;;;;5034834;28;20509;-67
2022/12/15 15:12:00;;;;;;;14.88;10.05;;;0.40;99.90;;;;;;5016188;28;20058;-66
2022/12/15 15:14:27;;;;;;;13.68;9.82;;;0.30;99.90;;;;;;5041951;28;20025;-66
2022/12/15 15:17:11;;;;;;;14.00;9.57;;;0.30;99.90;;;;;;5035684;28;20057;-66
2022/12/15 15:19:44;;;;;;;16.77;10.25;;;0.40;99.90;;;;;;5036685;28;20042;-66
2022/12/15 15:22:24;;;;;;;14.45;10.70;;;0.30;99.90;;;;;;5035702;28;20045;-65
2022/12/15 15:24:50;;;;;;;12.88;9.73;;;0.20;99.90;;;;;;5036571;28;20057;-67
2022/12/15 15:27:38;;;;;;;13.45;10.90;;;0.20;99.90;;;;;;5038239;28;20050;-66
2022/12/15 15:30:16;;;;;;;11.98;9.27;;;0.20;99.90;;;;;;5036054;28;20052;-67
2022/12/15 15:32:55;;;;;;;12.70;9.85;;;0.20;99.90;;;;;;5036564;28;20080;-67
2022/12/15 15:35:22;;;;;;;14.90;10.45;;;0.20;99.90;;;;;;5036378;28;20030;-66